sensor_id;sensor_type;location;lat;lon;timestamp;temperature;humidity
12853;DHT22;6495;51.808;7.478;2023-02-03T00:00:06;8.40;99.90
12853;DHT22;6495;51.808;7.478;2023-02-03T00:02:38;8.40;99.90
12853;DHT22;6495;51.808;7.478;2023-02-03T00:05:07;8.40;99.90
12853;DHT22;6495;51.808;7.478;2023-02-03T00:07:36;8.40;99.90
12853;DHT22;6495;51.808;7.478;2023-02-03T00:10:06;8.40;99.90
12853;DHT22;6495;51.808;7.478;2023-02-03T00:12:36;8.40;99.90
12853;DHT22;6495;51.808;7.478;2023-02-03T00:15:05;8.40;99.90
12853;DHT22;6495;51.808;7.478;2023-02-03T00:17:34;8.40;99.90
12853;DHT22;6495;51.808;7.478;2023-02-03T00:20:03;8.40;99.90
12853;DHT22;6495;51.808;7.478;2023-02-03T00:22:32;8.40;99.90
12853;DHT22;6495;51.808;7.478;2023-02-03T00:25:00;8.40;99.90
12853;DHT22;6495;51.808;7.478;2023-02-03T00:27:28;8.40;99.90
12853;DHT22;6495;51.808;7.478;2023-02-03T00:29:58;8.40;99.90
12853;DHT22;6495;51.808;7.478;2023-02-03T00:32:27;8.40;99.90
12853;DHT22;6495;51.808;7.478;2023-02-03T00:34:56;8.40;99.90
12853;DHT22;6495;51.808;7.478;2023-02-03T00:37:24;8.40;99.90
12853;DHT22;6495;51.808;7.478;2023-02-03T00:39:52;8.40;99.90
12853;DHT22;6495;51.808;7.478;2023-02-03T00:42:20;8.40;99.90
12853;DHT22;6495;51.808;7.478;2023-02-03T00:44:48;8.40;99.90
12853;DHT22;6495;51.808;7.478;2023-02-03T00:47:18;8.40;99.90
12853;DHT22;6495;51.808;7.478;2023-02-03T00:49:46;8.40;99.90
12853;DHT22;6495;51.808;7.478;2023-02-03T00:52:16;8.40;99.90
12853;DHT22;6495;51.808;7.478;2023-02-03T00:54:44;8.40;99.90
12853;DHT22;6495;51.808;7.478;2023-02-03T00:57:12;8.40;99.90
12853;DHT22;6495;51.808;7.478;2023-02-03T00:59:40;8.40;99.90
12853;DHT22;6495;51.808;7.478;2023-02-03T01:02:08;8.40;99.90
12853;DHT22;6495;51.808;7.478;2023-02-03T01:04:38;8.40;99.90
12853;DHT22;6495;51.808;7.478;2023-02-03T01:07:06;8.40;99.90
12853;DHT22;6495;51.808;7.478;2023-02-03T01:09:35;8.40;99.90
12853;DHT22;6495;51.808;7.478;2023-02-03T01:12:04;8.40;99.90
12853;DHT22;6495;51.808;7.478;2023-02-03T01:14:33;8.40;99.90
12853;DHT22;6495;51.808;7.478;2023-02-03T01:17:03;8.40;99.90
12853;DHT22;6495;51.808;7.478;2023-02-03T01:19:31;8.40;99.90
12853;DHT22;6495;51.808;7.478;2023-02-03T01:22:01;8.40;99.90
12853;DHT22;6495;51.808;7.478;2023-02-03T01:24:30;8.40;99.90
12853;DHT22;6495;51.808;7.478;2023-02-03T01:26:58;8.40;99.90
12853;DHT22;6495;51.808;7.478;2023-02-03T01:29:27;8.40;99.90
12853;DHT22;6495;51.808;7.478;2023-02-03T01:31:55;8.40;99.90
12853;DHT22;6495;51.808;7.478;2023-02-03T01:34:23;8.40;99.90
12853;DHT22;6495;51.808;7.478;2023-02-03T01:36:51;8.40;99.90
12853;DHT22;6495;51.808;7.478;2023-02-03T01:39:22;8.40;99.90
12853;DHT22;6495;51.808;7.478;2023-02-03T01:41:54;8.40;99.90
12853;DHT22;6495;51.808;7.478;2023-02-03T01:44:39;8.40;99.90
12853;DHT22;6495;51.808;7.478;2023-02-03T01:47:14;8.40;99.90
12853;DHT22;6495;51.808;7.478;2023-02-03T01:49:49;8.40;99.90
12853;DHT22;6495;51.808;7.478;2023-02-03T01:52:22;8.50;99.90
12853;DHT22;6495;51.808;7.478;2023-02-03T01:54:54;8.40;99.90
12853;DHT22;6495;51.808;7.478;2023-02-03T01:57:28;8.50;99.90
12853;DHT22;6495;51.808;7.478;2023-02-03T02:00:03;8.40;99.90
12853;DHT22;6495;51.808;7.478;2023-02-03T02:02:41;8.50;99.90
12853;DHT22;6495;51.808;7.478;2023-02-03T02:05:15;8.50;99.90
12853;DHT22;6495;51.808;7.478;2023-02-03T02:07:48;8.40;99.90
12853;DHT22;6495;51.808;7.478;2023-02-03T02:10:19;8.50;99.90
12853;DHT22;6495;51.808;7.478;2023-02-03T02:12:47;8.50;99.90
12853;DHT22;6495;51.808;7.478;2023-02-03T02:15:16;8.50;99.90
12853;DHT22;6495;51.808;7.478;2023-02-03T02:17:57;8.50;99.90
12853;DHT22;6495;51.808;7.478;2023-02-03T02:27:04;8.50;99.90
12853;DHT22;6495;51.808;7.478;2023-02-03T02:33:13;8.50;99.90
12853;DHT22;6495;51.808;7.478;2023-02-03T02:35:56;8.50;99.90
12853;DHT22;6495;51.808;7.478;2023-02-03T02:38:40;8.50;99.90
12853;DHT22;6495;51.808;7.478;2023-02-03T02:41:20;8.50;99.90
12853;DHT22;6495;51.808;7.478;2023-02-03T02:43:57;8.50;99.90
12853;DHT22;6495;51.808;7.478;2023-02-03T02:46:31;8.50;99.90
12853;DHT22;6495;51.808;7.478;2023-02-03T02:49:09;8.50;99.90
12853;DHT22;6495;51.808;7.478;2023-02-03T02:51:43;8.50;99.90
12853;DHT22;6495;51.808;7.478;2023-02-03T02:54:17;8.50;99.90
12853;DHT22;6495;51.808;7.478;2023-02-03T02:56:52;8.50;99.90
12853;DHT22;6495;51.808;7.478;2023-02-03T02:59:23;8.60;99.90
12853;DHT22;6495;51.808;7.478;2023-02-03T03:01:51;8.50;99.90
12853;DHT22;6495;51.808;7.478;2023-02-03T03:04:24;8.60;99.90
12853;DHT22;6495;51.808;7.478;2023-02-03T03:06:59;8.50;99.90
12853;DHT22;6495;51.808;7.478;2023-02-03T03:09:34;8.60;99.90
12853;DHT22;6495;51.808;7.478;2023-02-03T03:12:10;8.50;99.90
12853;DHT22;6495;51.808;7.478;2023-02-03T03:14:46;8.60;99.90
12853;DHT22;6495;51.808;7.478;2023-02-03T03:17:20;8.50;99.90
12853;DHT22;6495;51.808;7.478;2023-02-03T03:19:56;8.50;99.90
12853;DHT22;6495;51.808;7.478;2023-02-03T03:22:35;8.50;99.90
12853;DHT22;6495;51.808;7.478;2023-02-03T03:25:12;8.50;99.90
12853;DHT22;6495;51.808;7.478;2023-02-03T03:27:48;8.50;99.90
12853;DHT22;6495;51.808;7.478;2023-02-03T03:30:21;8.50;99.90
12853;DHT22;6495;51.808;7.478;2023-02-03T03:32:53;8.60;99.90
12853;DHT22;6495;51.808;7.478;2023-02-03T03:35:27;8.50;99.90
12853;DHT22;6495;51.808;7.478;2023-02-03T03:38:06;8.50;99.90
12853;DHT22;6495;51.808;7.478;2023-02-03T03:40:41;8.50;99.90
12853;DHT22;6495;51.808;7.478;2023-02-03T03:43:17;8.50;99.90
12853;DHT22;6495;51.808;7.478;2023-02-03T03:45:52;8.50;99.90
12853;DHT22;6495;51.808;7.478;2023-02-03T03:48:27;8.50;99.90
12853;DHT22;6495;51.808;7.478;2023-02-03T03:51:04;8.50;99.90
12853;DHT22;6495;51.808;7.478;2023-02-03T03:53:37;8.50;99.90
12853;DHT22;6495;51.808;7.478;2023-02-03T03:56:11;8.50;99.90
12853;DHT22;6495;51.808;7.478;2023-02-03T03:58:45;8.50;99.90
12853;DHT22;6495;51.808;7.478;2023-02-03T04:01:19;8.50;99.90
12853;DHT22;6495;51.808;7.478;2023-02-03T04:03:54;8.50;99.90
12853;DHT22;6495;51.808;7.478;2023-02-03T04:06:27;8.50;99.90
12853;DHT22;6495;51.808;7.478;2023-02-03T04:08:56;8.50;99.90
12853;DHT22;6495;51.808;7.478;2023-02-03T04:11:24;8.50;99.90
12853;DHT22;6495;51.808;7.478;2023-02-03T04:14:10;8.50;99.90
12853;DHT22;6495;51.808;7.478;2023-02-03T04:16:38;8.50;99.90
12853;DHT22;6495;51.808;7.478;2023-02-03T04:19:07;8.50;99.90
12853;DHT22;6495;51.808;7.478;2023-02-03T04:21:37;8.50;99.90
12853;DHT22;6495;51.808;7.478;2023-02-03T04:24:05;8.50;99.90
12853;DHT22;6495;51.808;7.478;2023-02-03T04:26:34;8.50;99.90
12853;DHT22;6495;51.808;7.478;2023-02-03T04:29:02;8.50;99.90
12853;DHT22;6495;51.808;7.478;2023-02-03T04:31:32;8.50;99.90
12853;DHT22;6495;51.808;7.478;2023-02-03T04:34:01;8.50;99.90
12853;DHT22;6495;51.808;7.478;2023-02-03T04:36:29;8.50;99.90
12853;DHT22;6495;51.808;7.478;2023-02-03T04:38:59;8.50;99.90
12853;DHT22;6495;51.808;7.478;2023-02-03T04:41:28;8.50;99.90
12853;DHT22;6495;51.808;7.478;2023-02-03T04:43:56;8.50;99.90
12853;DHT22;6495;51.808;7.478;2023-02-03T04:46:25;8.50;99.90
12853;DHT22;6495;51.808;7.478;2023-02-03T04:48:53;8.50;99.90
12853;DHT22;6495;51.808;7.478;2023-02-03T04:51:21;8.50;99.90
12853;DHT22;6495;51.808;7.478;2023-02-03T04:53:50;8.50;99.90
12853;DHT22;6495;51.808;7.478;2023-02-03T04:56:20;8.50;99.90
12853;DHT22;6495;51.808;7.478;2023-02-03T04:58:48;8.50;99.90
12853;DHT22;6495;51.808;7.478;2023-02-03T05:01:17;8.50;99.90
12853;DHT22;6495;51.808;7.478;2023-02-03T05:03:45;8.50;99.90
12853;DHT22;6495;51.808;7.478;2023-02-03T05:06:14;8.50;99.90
12853;DHT22;6495;51.808;7.478;2023-02-03T05:08:42;8.50;99.90
12853;DHT22;6495;51.808;7.478;2023-02-03T05:11:10;8.50;99.90
12853;DHT22;6495;51.808;7.478;2023-02-03T05:13:40;8.50;99.90
12853;DHT22;6495;51.808;7.478;2023-02-03T05:16:09;8.50;99.90
12853;DHT22;6495;51.808;7.478;2023-02-03T05:27:09;8.50;99.90
12853;DHT22;6495;51.808;7.478;2023-02-03T05:30:07;8.50;99.90
12853;DHT22;6495;51.808;7.478;2023-02-03T05:33:13;8.50;99.90
12853;DHT22;6495;51.808;7.478;2023-02-03T05:36:19;8.50;99.90
12853;DHT22;6495;51.808;7.478;2023-02-03T05:43:14;8.50;99.90
12853;DHT22;6495;51.808;7.478;2023-02-03T05:45:44;8.50;99.90
12853;DHT22;6495;51.808;7.478;2023-02-03T05:48:12;8.50;99.90
12853;DHT22;6495;51.808;7.478;2023-02-03T05:50:41;8.50;99.90
12853;DHT22;6495;51.808;7.478;2023-02-03T05:53:10;8.60;99.90
12853;DHT22;6495;51.808;7.478;2023-02-03T05:55:39;8.50;99.90
12853;DHT22;6495;51.808;7.478;2023-02-03T05:58:08;8.60;99.90
12853;DHT22;6495;51.808;7.478;2023-02-03T06:00:37;8.50;99.90
12853;DHT22;6495;51.808;7.478;2023-02-03T06:03:07;8.50;99.90
12853;DHT22;6495;51.808;7.478;2023-02-03T06:05:36;8.50;99.90
12853;DHT22;6495;51.808;7.478;2023-02-03T06:08:07;8.60;99.90
12853;DHT22;6495;51.808;7.478;2023-02-03T06:10:36;8.60;99.90
12853;DHT22;6495;51.808;7.478;2023-02-03T06:13:19;8.50;99.90
12853;DHT22;6495;51.808;7.478;2023-02-03T06:15:47;8.60;99.90
12853;DHT22;6495;51.808;7.478;2023-02-03T06:18:18;8.60;99.90
12853;DHT22;6495;51.808;7.478;2023-02-03T06:20:50;8.50;99.90
12853;DHT22;6495;51.808;7.478;2023-02-03T06:23:18;8.60;99.90
12853;DHT22;6495;51.808;7.478;2023-02-03T06:25:48;8.50;99.90
12853;DHT22;6495;51.808;7.478;2023-02-03T06:28:18;8.60;99.90
12853;DHT22;6495;51.808;7.478;2023-02-03T06:30:49;8.60;99.90
12853;DHT22;6495;51.808;7.478;2023-02-03T06:33:20;8.60;99.90
12853;DHT22;6495;51.808;7.478;2023-02-03T06:35:49;8.60;99.90
12853;DHT22;6495;51.808;7.478;2023-02-03T06:38:20;8.60;99.90
12853;DHT22;6495;51.808;7.478;2023-02-03T06:40:49;8.60;99.90
12853;DHT22;6495;51.808;7.478;2023-02-03T06:43:17;8.60;99.90
12853;DHT22;6495;51.808;7.478;2023-02-03T06:45:46;8.60;99.90
12853;DHT22;6495;51.808;7.478;2023-02-03T06:48:15;8.60;99.90
12853;DHT22;6495;51.808;7.478;2023-02-03T06:50:45;8.60;99.90
12853;DHT22;6495;51.808;7.478;2023-02-03T06:53:14;8.60;99.90
12853;DHT22;6495;51.808;7.478;2023-02-03T06:55:43;8.60;99.90
12853;DHT22;6495;51.808;7.478;2023-02-03T06:58:13;8.60;99.90
12853;DHT22;6495;51.808;7.478;2023-02-03T07:00:42;8.60;99.90
12853;DHT22;6495;51.808;7.478;2023-02-03T07:03:11;8.60;99.90
12853;DHT22;6495;51.808;7.478;2023-02-03T07:05:39;8.60;99.90
12853;DHT22;6495;51.808;7.478;2023-02-03T07:08:09;8.60;99.90
12853;DHT22;6495;51.808;7.478;2023-02-03T07:10:38;8.60;99.90
12853;DHT22;6495;51.808;7.478;2023-02-03T07:13:16;8.60;99.90
12853;DHT22;6495;51.808;7.478;2023-02-03T07:15:50;8.70;99.90
12853;DHT22;6495;51.808;7.478;2023-02-03T07:18:18;8.70;99.90
12853;DHT22;6495;51.808;7.478;2023-02-03T07:27:35;8.70;99.90
12853;DHT22;6495;51.808;7.478;2023-02-03T07:30:05;8.70;99.90
12853;DHT22;6495;51.808;7.478;2023-02-03T07:37:50;8.70;99.90
12853;DHT22;6495;51.808;7.478;2023-02-03T07:41:35;8.70;99.90
12853;DHT22;6495;51.808;7.478;2023-02-03T07:44:05;8.70;99.90
12853;DHT22;6495;51.808;7.478;2023-02-03T07:46:38;8.70;99.90
12853;DHT22;6495;51.808;7.478;2023-02-03T07:49:13;8.70;99.90
12853;DHT22;6495;51.808;7.478;2023-02-03T07:51:44;8.70;99.90
12853;DHT22;6495;51.808;7.478;2023-02-03T07:54:18;8.70;99.90
12853;DHT22;6495;51.808;7.478;2023-02-03T07:56:47;8.70;99.90
12853;DHT22;6495;51.808;7.478;2023-02-03T07:59:25;8.70;99.90
12853;DHT22;6495;51.808;7.478;2023-02-03T08:01:59;8.70;99.90
12853;DHT22;6495;51.808;7.478;2023-02-03T08:04:27;8.80;99.90
12853;DHT22;6495;51.808;7.478;2023-02-03T08:07:12;8.80;99.90
12853;DHT22;6495;51.808;7.478;2023-02-03T08:13:19;8.80;99.90
12853;DHT22;6495;51.808;7.478;2023-02-03T08:16:48;8.80;99.90
12853;DHT22;6495;51.808;7.478;2023-02-03T08:19:16;8.80;99.90
12853;DHT22;6495;51.808;7.478;2023-02-03T08:21:55;8.80;99.90
12853;DHT22;6495;51.808;7.478;2023-02-03T08:24:25;8.80;99.90
12853;DHT22;6495;51.808;7.478;2023-02-03T08:27:33;8.80;99.90
12853;DHT22;6495;51.808;7.478;2023-02-03T08:30:12;8.90;99.90
12853;DHT22;6495;51.808;7.478;2023-02-03T08:32:46;8.90;99.90
12853;DHT22;6495;51.808;7.478;2023-02-03T08:35:47;8.90;99.90
12853;DHT22;6495;51.808;7.478;2023-02-03T08:42:02;8.90;99.90
12853;DHT22;6495;51.808;7.478;2023-02-03T08:45:32;8.90;99.90
12853;DHT22;6495;51.808;7.478;2023-02-03T08:48:11;8.90;99.90
12853;DHT22;6495;51.808;7.478;2023-02-03T08:53:42;8.90;99.90
12853;DHT22;6495;51.808;7.478;2023-02-03T08:56:14;8.90;99.90
12853;DHT22;6495;51.808;7.478;2023-02-03T08:58:46;9.00;99.90
12853;DHT22;6495;51.808;7.478;2023-02-03T09:01:28;9.00;99.90
12853;DHT22;6495;51.808;7.478;2023-02-03T09:04:31;9.00;99.90
12853;DHT22;6495;51.808;7.478;2023-02-03T09:07:41;9.00;99.90
12853;DHT22;6495;51.808;7.478;2023-02-03T09:10:31;9.00;99.90
12853;DHT22;6495;51.808;7.478;2023-02-03T09:13:05;9.00;99.90
12853;DHT22;6495;51.808;7.478;2023-02-03T09:16:16;9.00;99.90
12853;DHT22;6495;51.808;7.478;2023-02-03T09:18:56;9.00;99.90
12853;DHT22;6495;51.808;7.478;2023-02-03T09:21:29;9.10;99.90
12853;DHT22;6495;51.808;7.478;2023-02-03T09:24:08;9.10;99.90
12853;DHT22;6495;51.808;7.478;2023-02-03T09:27:09;9.10;99.90
12853;DHT22;6495;51.808;7.478;2023-02-03T09:32:55;9.10;99.90
12853;DHT22;6495;51.808;7.478;2023-02-03T09:35:36;9.10;99.90
12853;DHT22;6495;51.808;7.478;2023-02-03T09:38:25;9.10;99.90
12853;DHT22;6495;51.808;7.478;2023-02-03T09:46:53;9.10;99.90
12853;DHT22;6495;51.808;7.478;2023-02-03T09:49:31;9.20;99.90
12853;DHT22;6495;51.808;7.478;2023-02-03T09:52:10;9.10;99.90
12853;DHT22;6495;51.808;7.478;2023-02-03T09:54:49;9.10;99.90
12853;DHT22;6495;51.808;7.478;2023-02-03T09:57:23;9.10;99.90
12853;DHT22;6495;51.808;7.478;2023-02-03T10:00:02;9.10;99.90
12853;DHT22;6495;51.808;7.478;2023-02-03T10:02:53;9.20;99.90
12853;DHT22;6495;51.808;7.478;2023-02-03T10:05:41;9.20;99.90
12853;DHT22;6495;51.808;7.478;2023-02-03T10:08:35;9.20;99.90
12853;DHT22;6495;51.808;7.478;2023-02-03T10:11:27;9.20;99.90
12853;DHT22;6495;51.808;7.478;2023-02-03T10:14:17;9.20;99.90
12853;DHT22;6495;51.808;7.478;2023-02-03T10:17:20;9.20;99.90
12853;DHT22;6495;51.808;7.478;2023-02-03T10:20:01;9.20;99.90
12853;DHT22;6495;51.808;7.478;2023-02-03T10:22:39;9.20;99.90
12853;DHT22;6495;51.808;7.478;2023-02-03T10:25:18;9.20;99.90
12853;DHT22;6495;51.808;7.478;2023-02-03T10:27:54;9.20;99.90
12853;DHT22;6495;51.808;7.478;2023-02-03T10:30:29;9.20;99.90
12853;DHT22;6495;51.808;7.478;2023-02-03T10:33:10;9.20;99.90
12853;DHT22;6495;51.808;7.478;2023-02-03T10:35:52;9.20;99.90
12853;DHT22;6495;51.808;7.478;2023-02-03T10:38:37;9.20;99.90
12853;DHT22;6495;51.808;7.478;2023-02-03T10:41:18;9.20;99.90
12853;DHT22;6495;51.808;7.478;2023-02-03T10:47:40;9.30;99.90
12853;DHT22;6495;51.808;7.478;2023-02-03T10:51:02;9.20;99.90
12853;DHT22;6495;51.808;7.478;2023-02-03T11:04:22;9.30;99.90
12853;DHT22;6495;51.808;7.478;2023-02-03T11:06:57;9.30;99.90
12853;DHT22;6495;51.808;7.478;2023-02-03T11:09:37;9.30;99.90
12853;DHT22;6495;51.808;7.478;2023-02-03T11:12:14;9.30;99.90
12853;DHT22;6495;51.808;7.478;2023-02-03T11:20:40;9.30;99.90
12853;DHT22;6495;51.808;7.478;2023-02-03T11:24:00;9.30;99.90
12853;DHT22;6495;51.808;7.478;2023-02-03T11:26:48;9.30;99.90
12853;DHT22;6495;51.808;7.478;2023-02-03T11:29:45;9.30;99.90
12853;DHT22;6495;51.808;7.478;2023-02-03T11:32:18;9.30;99.90
12853;DHT22;6495;51.808;7.478;2023-02-03T11:35:03;9.30;99.90
12853;DHT22;6495;51.808;7.478;2023-02-03T11:38:48;9.30;99.90
12853;DHT22;6495;51.808;7.478;2023-02-03T11:41:38;9.30;99.90
12853;DHT22;6495;51.808;7.478;2023-02-03T11:44:30;9.40;99.90
12853;DHT22;6495;51.808;7.478;2023-02-03T11:47:02;9.30;99.90
12853;DHT22;6495;51.808;7.478;2023-02-03T11:50:02;9.30;99.90
12853;DHT22;6495;51.808;7.478;2023-02-03T11:52:49;9.30;99.90
12853;DHT22;6495;51.808;7.478;2023-02-03T11:55:40;9.30;99.90
12853;DHT22;6495;51.808;7.478;2023-02-03T12:06:22;9.30;99.90
12853;DHT22;6495;51.808;7.478;2023-02-03T12:09:21;9.30;99.90
12853;DHT22;6495;51.808;7.478;2023-02-03T12:12:20;9.20;99.90
12853;DHT22;6495;51.808;7.478;2023-02-03T12:15:11;9.20;99.90
12853;DHT22;6495;51.808;7.478;2023-02-03T12:18:10;9.20;99.90
12853;DHT22;6495;51.808;7.478;2023-02-03T12:20:57;9.20;99.90
12853;DHT22;6495;51.808;7.478;2023-02-03T12:23:41;9.10;99.90
12853;DHT22;6495;51.808;7.478;2023-02-03T12:26:20;9.10;99.90
12853;DHT22;6495;51.808;7.478;2023-02-03T12:28:59;9.10;99.90
12853;DHT22;6495;51.808;7.478;2023-02-03T12:31:35;9.10;99.90
12853;DHT22;6495;51.808;7.478;2023-02-03T12:34:16;9.10;99.90
12853;DHT22;6495;51.808;7.478;2023-02-03T12:36:54;9.10;99.90
12853;DHT22;6495;51.808;7.478;2023-02-03T12:39:28;9.10;99.90
12853;DHT22;6495;51.808;7.478;2023-02-03T12:42:03;9.10;99.90
12853;DHT22;6495;51.808;7.478;2023-02-03T12:44:44;9.10;99.90
12853;DHT22;6495;51.808;7.478;2023-02-03T12:47:24;9.10;99.90
12853;DHT22;6495;51.808;7.478;2023-02-03T12:49:59;9.10;99.90
12853;DHT22;6495;51.808;7.478;2023-02-03T12:52:35;9.10;99.90
12853;DHT22;6495;51.808;7.478;2023-02-03T12:55:17;9.10;99.90
12853;DHT22;6495;51.808;7.478;2023-02-03T12:57:54;9.10;99.90
12853;DHT22;6495;51.808;7.478;2023-02-03T13:00:36;9.10;99.90
12853;DHT22;6495;51.808;7.478;2023-02-03T13:03:14;9.10;99.90
12853;DHT22;6495;51.808;7.478;2023-02-03T13:05:50;9.10;99.90
12853;DHT22;6495;51.808;7.478;2023-02-03T13:08:29;9.10;99.90
12853;DHT22;6495;51.808;7.478;2023-02-03T13:11:14;9.10;99.90
12853;DHT22;6495;51.808;7.478;2023-02-03T13:13:52;9.10;99.90
12853;DHT22;6495;51.808;7.478;2023-02-03T13:16:33;9.00;99.90
12853;DHT22;6495;51.808;7.478;2023-02-03T13:19:10;9.00;99.90
12853;DHT22;6495;51.808;7.478;2023-02-03T13:21:46;9.00;99.90
12853;DHT22;6495;51.808;7.478;2023-02-03T13:24:15;9.00;99.90
12853;DHT22;6495;51.808;7.478;2023-02-03T13:27:18;9.00;99.90
12853;DHT22;6495;51.808;7.478;2023-02-03T13:30:15;9.00;99.90
12853;DHT22;6495;51.808;7.478;2023-02-03T13:33:29;9.00;99.90
12853;DHT22;6495;51.808;7.478;2023-02-03T13:42:29;9.00;99.90
12853;DHT22;6495;51.808;7.478;2023-02-03T13:45:05;9.00;99.90
12853;DHT22;6495;51.808;7.478;2023-02-03T13:47:45;9.00;99.90
12853;DHT22;6495;51.808;7.478;2023-02-03T13:50:21;9.00;99.90
12853;DHT22;6495;51.808;7.478;2023-02-03T13:52:58;9.00;99.90
12853;DHT22;6495;51.808;7.478;2023-02-03T13:55:32;9.00;99.90
12853;DHT22;6495;51.808;7.478;2023-02-03T13:58:04;9.00;99.90
12853;DHT22;6495;51.808;7.478;2023-02-03T14:01:29;9.00;99.90
12853;DHT22;6495;51.808;7.478;2023-02-03T14:04:00;9.00;99.90
12853;DHT22;6495;51.808;7.478;2023-02-03T14:06:59;9.00;99.90
12853;DHT22;6495;51.808;7.478;2023-02-03T14:09:44;9.00;99.90
12853;DHT22;6495;51.808;7.478;2023-02-03T14:12:53;9.00;99.90
12853;DHT22;6495;51.808;7.478;2023-02-03T14:15:33;9.00;99.90
12853;DHT22;6495;51.808;7.478;2023-02-03T14:18:30;9.00;99.90
12853;DHT22;6495;51.808;7.478;2023-02-03T14:21:19;9.00;99.90
12853;DHT22;6495;51.808;7.478;2023-02-03T14:23:58;9.00;99.90
12853;DHT22;6495;51.808;7.478;2023-02-03T14:26:38;9.00;99.90
12853;DHT22;6495;51.808;7.478;2023-02-03T14:29:22;9.00;99.90
12853;DHT22;6495;51.808;7.478;2023-02-03T14:31:56;9.00;99.90
12853;DHT22;6495;51.808;7.478;2023-02-03T14:34:37;9.00;99.90
12853;DHT22;6495;51.808;7.478;2023-02-03T14:37:17;9.00;99.90
12853;DHT22;6495;51.808;7.478;2023-02-03T14:49:44;8.90;99.90
12853;DHT22;6495;51.808;7.478;2023-02-03T14:52:51;8.90;99.90
12853;DHT22;6495;51.808;7.478;2023-02-03T14:55:41;8.90;99.90
12853;DHT22;6495;51.808;7.478;2023-02-03T14:58:26;8.90;99.90
12853;DHT22;6495;51.808;7.478;2023-02-03T15:00:59;8.90;99.90
12853;DHT22;6495;51.808;7.478;2023-02-03T15:03:34;8.90;99.90
12853;DHT22;6495;51.808;7.478;2023-02-03T15:06:35;8.80;99.90
12853;DHT22;6495;51.808;7.478;2023-02-03T15:09:13;8.80;99.90
12853;DHT22;6495;51.808;7.478;2023-02-03T15:11:56;8.80;99.90
12853;DHT22;6495;51.808;7.478;2023-02-03T15:15:54;8.80;99.90
12853;DHT22;6495;51.808;7.478;2023-02-03T15:18:29;8.80;99.90
12853;DHT22;6495;51.808;7.478;2023-02-03T15:20:59;8.80;99.90
12853;DHT22;6495;51.808;7.478;2023-02-03T15:23:29;8.80;99.90
12853;DHT22;6495;51.808;7.478;2023-02-03T15:26:12;8.80;99.90
12853;DHT22;6495;51.808;7.478;2023-02-03T15:29:00;8.80;99.90
12853;DHT22;6495;51.808;7.478;2023-02-03T15:37:36;8.70;99.90
12853;DHT22;6495;51.808;7.478;2023-02-03T15:41:30;8.70;99.90
12853;DHT22;6495;51.808;7.478;2023-02-03T15:44:42;8.70;99.90
12853;DHT22;6495;51.808;7.478;2023-02-03T15:47:52;8.70;99.90
12853;DHT22;6495;51.808;7.478;2023-02-03T15:51:16;8.70;99.90
12853;DHT22;6495;51.808;7.478;2023-02-03T15:53:53;8.60;99.90
12853;DHT22;6495;51.808;7.478;2023-02-03T15:56:30;8.60;99.90
12853;DHT22;6495;51.808;7.478;2023-02-03T15:59:04;8.60;99.90
12853;DHT22;6495;51.808;7.478;2023-02-03T16:01:46;8.60;99.90
12853;DHT22;6495;51.808;7.478;2023-02-03T16:04:15;8.60;99.90
12853;DHT22;6495;51.808;7.478;2023-02-03T16:06:45;8.60;99.90
12853;DHT22;6495;51.808;7.478;2023-02-03T16:09:27;8.60;99.90
12853;DHT22;6495;51.808;7.478;2023-02-03T16:12:04;8.60;99.90
12853;DHT22;6495;51.808;7.478;2023-02-03T16:14:43;8.60;99.90
12853;DHT22;6495;51.808;7.478;2023-02-03T16:17:25;8.60;99.90
12853;DHT22;6495;51.808;7.478;2023-02-03T16:20:19;8.60;99.90
12853;DHT22;6495;51.808;7.478;2023-02-03T16:23:02;8.60;99.90
12853;DHT22;6495;51.808;7.478;2023-02-03T16:25:34;8.50;99.90
12853;DHT22;6495;51.808;7.478;2023-02-03T16:28:31;8.50;99.90
12853;DHT22;6495;51.808;7.478;2023-02-03T16:31:19;8.50;99.90
12853;DHT22;6495;51.808;7.478;2023-02-03T16:34:13;8.50;99.90
12853;DHT22;6495;51.808;7.478;2023-02-03T16:37:22;8.50;99.90
12853;DHT22;6495;51.808;7.478;2023-02-03T16:40:21;8.50;99.90
12853;DHT22;6495;51.808;7.478;2023-02-03T16:43:16;8.50;99.90
12853;DHT22;6495;51.808;7.478;2023-02-03T16:49:40;8.40;99.90
12853;DHT22;6495;51.808;7.478;2023-02-03T16:52:39;8.40;99.90
12853;DHT22;6495;51.808;7.478;2023-02-03T16:55:19;8.40;99.90
12853;DHT22;6495;51.808;7.478;2023-02-03T16:58:12;8.40;99.90
12853;DHT22;6495;51.808;7.478;2023-02-03T17:00:52;8.40;99.90
12853;DHT22;6495;51.808;7.478;2023-02-03T17:03:33;8.40;99.90
12853;DHT22;6495;51.808;7.478;2023-02-03T17:06:13;8.40;99.90
12853;DHT22;6495;51.808;7.478;2023-02-03T17:09:01;8.40;99.90
12853;DHT22;6495;51.808;7.478;2023-02-03T17:11:43;8.40;99.90
12853;DHT22;6495;51.808;7.478;2023-02-03T17:14:20;8.40;99.90
12853;DHT22;6495;51.808;7.478;2023-02-03T17:17:20;8.40;99.90
12853;DHT22;6495;51.808;7.478;2023-02-03T17:19:56;8.40;99.90
12853;DHT22;6495;51.808;7.478;2023-02-03T17:22:28;8.40;99.90
12853;DHT22;6495;51.808;7.478;2023-02-03T17:24:59;8.40;99.90
12853;DHT22;6495;51.808;7.478;2023-02-03T17:27:38;8.40;99.90
12853;DHT22;6495;51.808;7.478;2023-02-03T17:30:09;8.40;99.90
12853;DHT22;6495;51.808;7.478;2023-02-03T17:32:39;8.30;99.90
12853;DHT22;6495;51.808;7.478;2023-02-03T17:35:08;8.30;99.90
12853;DHT22;6495;51.808;7.478;2023-02-03T17:37:40;8.30;99.90
12853;DHT22;6495;51.808;7.478;2023-02-03T17:40:29;8.30;99.90
12853;DHT22;6495;51.808;7.478;2023-02-03T17:43:36;8.30;99.90
12853;DHT22;6495;51.808;7.478;2023-02-03T17:46:32;8.30;99.90
12853;DHT22;6495;51.808;7.478;2023-02-03T17:49:39;8.20;99.90
12853;DHT22;6495;51.808;7.478;2023-02-03T17:52:28;8.20;99.90
12853;DHT22;6495;51.808;7.478;2023-02-03T17:55:20;8.20;99.90
12853;DHT22;6495;51.808;7.478;2023-02-03T17:58:09;8.20;99.90
12853;DHT22;6495;51.808;7.478;2023-02-03T18:01:06;8.20;99.90
12853;DHT22;6495;51.808;7.478;2023-02-03T18:03:43;8.20;99.90
12853;DHT22;6495;51.808;7.478;2023-02-03T18:06:18;8.10;99.90
12853;DHT22;6495;51.808;7.478;2023-02-03T18:08:49;8.10;99.90
12853;DHT22;6495;51.808;7.478;2023-02-03T18:11:21;8.10;99.90
12853;DHT22;6495;51.808;7.478;2023-02-03T18:14:04;8.10;99.90
12853;DHT22;6495;51.808;7.478;2023-02-03T18:16:48;8.10;99.90
12853;DHT22;6495;51.808;7.478;2023-02-03T18:19:34;8.10;99.90
12853;DHT22;6495;51.808;7.478;2023-02-03T18:22:14;8.10;99.90
12853;DHT22;6495;51.808;7.478;2023-02-03T18:24:43;8.10;99.90
12853;DHT22;6495;51.808;7.478;2023-02-03T18:27:20;8.10;99.90
12853;DHT22;6495;51.808;7.478;2023-02-03T18:29:51;8.10;99.90
12853;DHT22;6495;51.808;7.478;2023-02-03T18:32:25;8.10;99.90
12853;DHT22;6495;51.808;7.478;2023-02-03T18:34:53;8.10;99.90
12853;DHT22;6495;51.808;7.478;2023-02-03T18:37:28;8.00;99.90
12853;DHT22;6495;51.808;7.478;2023-02-03T18:40:04;8.10;99.90
12853;DHT22;6495;51.808;7.478;2023-02-03T18:42:54;8.00;99.90
12853;DHT22;6495;51.808;7.478;2023-02-03T18:45:42;8.00;99.90
12853;DHT22;6495;51.808;7.478;2023-02-03T18:48:26;8.00;99.90
12853;DHT22;6495;51.808;7.478;2023-02-03T18:51:27;8.00;99.90
12853;DHT22;6495;51.808;7.478;2023-02-03T18:54:32;7.90;99.90
12853;DHT22;6495;51.808;7.478;2023-02-03T18:57:05;7.90;99.90
12853;DHT22;6495;51.808;7.478;2023-02-03T19:00:23;7.90;99.90
12853;DHT22;6495;51.808;7.478;2023-02-03T19:03:14;7.90;99.90
12853;DHT22;6495;51.808;7.478;2023-02-03T19:06:25;7.80;99.90
12853;DHT22;6495;51.808;7.478;2023-02-03T19:09:04;7.80;99.90